Aviation Digital Data Service (ADDS)

Output produced by METARs form (0244 UTC 26 November 2014)
found at http://www.aviationweather.gov/adds/metars/
 
KSFO 252323Z 2600/2706 29005KT P6SM SCT200 
     FM260400 VRB03KT P6SM SKC 
     FM262000 09004KT P6SM SCT250 
     FM270300 31004KT P6SM SCT250